createdAt,value
2022-11-15T00:05:14.675Z,10.63
2022-11-15T00:10:36.266Z,9.10
2022-11-15T00:16:00.949Z,9.77
2022-11-15T00:21:22.264Z,9.05
2022-11-15T00:26:43.777Z,9.05
2022-11-15T00:32:06.427Z,10.02
2022-11-15T00:37:27.907Z,12.13
2022-11-15T00:42:49.019Z,11.13
2022-11-15T00:48:12.143Z,12.13
2022-11-15T00:53:33.987Z,9.02
2022-11-15T00:58:55.561Z,10.32
2022-11-15T01:04:18.574Z,8.93
2022-11-15T01:09:39.670Z,9.65
2022-11-15T01:15:01.168Z,8.32
2022-11-15T01:20:24.008Z,8.80
2022-11-15T01:25:45.167Z,8.00
2022-11-15T01:31:07.857Z,8.57
2022-11-15T01:36:30.813Z,7.13
2022-11-15T01:41:51.902Z,8.02
2022-11-15T01:47:16.215Z,7.00
2022-11-15T01:52:40.213Z,6.47
2022-11-15T01:58:04.353Z,6.55
2022-11-15T02:03:31.427Z,5.47
2022-11-15T02:08:55.257Z,5.78
2022-11-15T02:14:17.587Z,5.78
2022-11-15T02:20:07.610Z,6.45
2022-11-15T02:25:40.580Z,5.65
2022-11-15T02:31:06.851Z,8.05
2022-11-15T02:36:36.330Z,5.22
2022-11-15T02:42:00.624Z,4.05
2022-11-15T02:47:23.953Z,5.93
2022-11-15T02:52:47.673Z,5.13
2022-11-15T02:58:25.528Z,4.50
2022-11-15T03:03:59.142Z,3.88
2022-11-15T03:09:28.867Z,4.20
2022-11-15T03:14:53.697Z,4.78
2022-11-15T03:20:18.023Z,4.20
2022-11-15T03:25:43.516Z,4.18
2022-11-15T03:31:25.601Z,5.60
2022-11-15T03:36:49.369Z,6.88
2022-11-15T03:42:18.597Z,3.67
2022-11-15T03:47:42.708Z,5.55
2022-11-15T03:53:05.580Z,12.40
2022-11-15T03:58:26.700Z,4.70
2022-11-15T04:03:48.039Z,6.40
2022-11-15T04:09:10.899Z,5.70
2022-11-15T04:14:32.391Z,9.98
2022-11-15T04:20:11.525Z,6.00
2022-11-15T04:25:34.560Z,6.82
2022-11-15T04:30:55.740Z,4.53
2022-11-15T04:36:34.783Z,4.80
2022-11-15T04:41:57.655Z,3.55
2022-11-15T04:47:19.819Z,4.75
2022-11-15T04:52:41.806Z,4.90
2022-11-15T04:58:04.547Z,5.00
2022-11-15T05:03:43.512Z,4.50
2022-11-15T05:09:05.426Z,5.13
2022-11-15T05:14:28.035Z,5.65
2022-11-15T05:19:49.453Z,5.40
2022-11-15T05:25:10.891Z,5.13
2022-11-15T05:30:33.555Z,5.57
2022-11-15T05:35:59.897Z,4.45
2022-11-15T05:41:23.580Z,3.85
2022-11-15T05:46:46.514Z,4.80
2022-11-15T05:52:10.046Z,4.53
2022-11-15T05:57:31.291Z,5.13
2022-11-15T06:02:54.155Z,4.32
2022-11-15T06:08:15.559Z,5.93
2022-11-15T06:13:37.044Z,4.63
2022-11-15T06:18:59.848Z,4.80
2022-11-15T06:24:21.238Z,5.20
2022-11-15T06:29:42.602Z,6.13
2022-11-15T06:35:06.745Z,5.63
2022-11-15T06:40:28.321Z,6.43
2022-11-15T06:45:49.453Z,6.35
2022-11-15T06:51:12.206Z,8.50
2022-11-15T06:56:33.808Z,9.75
2022-11-15T07:01:55.137Z,9.38
2022-11-15T07:07:17.967Z,7.20
2022-11-15T07:12:39.263Z,7.57
2022-11-15T07:18:02.666Z,7.53
2022-11-15T07:23:25.300Z,5.55
2022-11-15T07:28:46.725Z,4.82
2022-11-15T07:34:08.170Z,4.38
2022-11-15T07:39:31.014Z,4.85
2022-11-15T07:44:52.368Z,4.68
2022-11-15T07:50:14.030Z,3.58
2022-11-15T07:55:36.859Z,2.80
2022-11-15T08:00:58.306Z,5.35
2022-11-15T08:06:19.648Z,4.65
2022-11-15T08:11:42.413Z,3.38
2022-11-15T08:17:04.027Z,14.77
2022-11-15T08:22:25.382Z,3.25
2022-11-15T08:27:48.422Z,3.72
2022-11-15T08:33:12.828Z,3.80
2022-11-15T08:38:34.307Z,3.42
2022-11-15T08:43:57.367Z,4.25
2022-11-15T08:49:18.874Z,3.45
2022-11-15T08:54:40.175Z,7.90
2022-11-15T09:00:03.110Z,4.20
2022-11-15T09:05:24.332Z,3.17
2022-11-15T09:10:45.754Z,3.28
2022-11-15T09:16:08.801Z,5.93
2022-11-15T09:21:30.908Z,3.95
2022-11-15T09:26:52.577Z,2.63
2022-11-15T09:32:15.398Z,4.28
2022-11-15T09:37:36.844Z,3.05
2022-11-15T09:43:10.111Z,4.32
2022-11-15T09:48:48.296Z,2.38
2022-11-15T09:59:56.380Z,2.65
2022-11-15T10:05:01.784Z,2.53
2022-11-15T10:10:10.388Z,4.13
2022-11-15T10:15:15.578Z,3.10
2022-11-15T10:20:22.971Z,4.40
2022-11-15T10:25:27.260Z,3.65
2022-11-15T10:30:40.238Z,5.80
2022-11-15T10:35:44.448Z,2.33
2022-11-15T10:40:47.141Z,4.03
2022-11-15T10:45:50.884Z,3.03
2022-11-15T10:50:56.198Z,2.78
2022-11-15T10:56:01.897Z,2.97
2022-11-15T11:01:13.021Z,3.03
2022-11-15T11:06:19.194Z,3.28
2022-11-15T11:11:22.089Z,4.93
2022-11-15T11:16:43.981Z,2.33
2022-11-15T11:21:53.451Z,2.42
2022-11-15T11:27:07.892Z,2.70
2022-11-15T11:32:23.719Z,2.40
2022-11-15T11:37:33.048Z,2.58
2022-11-15T11:42:40.886Z,3.25
2022-11-15T11:47:49.097Z,2.17
2022-11-15T11:53:03.647Z,3.72
2022-11-15T11:58:13.575Z,2.72
2022-11-15T12:03:23.899Z,5.60
2022-11-15T12:08:35.582Z,2.42
2022-11-15T12:13:38.824Z,2.38
2022-11-15T12:18:51.132Z,2.63
2022-11-15T12:23:58.676Z,2.53
2022-11-15T12:29:08.617Z,2.70
2022-11-15T12:34:30.875Z,7.05
2022-11-15T12:40:07.163Z,3.28
2022-11-15T12:45:26.670Z,6.95
2022-11-15T12:50:58.922Z,2.60
2022-11-15T12:56:23.726Z,2.53
2022-11-15T13:01:58.132Z,2.90
2022-11-15T13:07:04.038Z,2.17
2022-11-15T13:12:13.594Z,3.17
2022-11-15T13:17:37.209Z,3.15
2022-11-15T13:22:52.821Z,3.83
2022-11-15T13:28:00.440Z,2.33
2022-11-15T13:33:10.958Z,5.30
2022-11-15T13:38:22.519Z,2.70
2022-11-15T13:43:33.236Z,2.38
2022-11-15T13:48:36.374Z,4.38
2022-11-15T13:53:40.795Z,3.80
2022-11-15T13:58:44.910Z,4.05
2022-11-15T14:03:56.729Z,3.58
2022-11-15T14:09:03.695Z,4.53
2022-11-15T14:14:16.371Z,4.50
2022-11-15T14:19:38.567Z,2.40
2022-11-15T14:24:42.023Z,3.47
2022-11-15T14:29:46.260Z,4.47
2022-11-15T14:34:49.491Z,4.68
2022-11-15T14:39:52.685Z,4.95
2022-11-15T14:44:56.744Z,2.83
2022-11-15T14:49:59.495Z,2.25
2022-11-15T14:55:03.246Z,2.53
2022-11-15T15:00:10.884Z,3.20
2022-11-15T15:05:18.596Z,4.32
2022-11-15T15:15:46.256Z,5.63
2022-11-15T15:20:52.433Z,4.45
2022-11-15T15:25:55.157Z,3.65
2022-11-15T15:31:00.284Z,6.10
2022-11-15T15:36:03.151Z,4.75
2022-11-15T15:41:06.086Z,5.47
2022-11-15T15:46:12.197Z,4.03
2022-11-15T15:51:20.105Z,14.23
2022-11-15T15:56:23.667Z,4.47
2022-11-15T16:01:27.764Z,3.88
2022-11-15T16:06:37.284Z,6.90
2022-11-15T16:11:40.073Z,7.35
2022-11-15T16:16:44.159Z,5.03
2022-11-15T16:21:47.045Z,5.70
2022-11-15T16:26:50.555Z,5.15
2022-11-15T16:31:54.621Z,6.30
2022-11-15T16:36:57.552Z,6.45
2022-11-15T16:42:00.781Z,10.85
2022-11-15T16:47:05.083Z,11.52
2022-11-15T16:52:07.952Z,9.02
2022-11-15T16:57:12.458Z,9.98
2022-11-15T17:02:17.249Z,13.13
2022-11-15T17:07:20.034Z,6.43
2022-11-15T17:12:22.881Z,7.47
2022-11-15T17:17:27.474Z,9.82
2022-11-15T17:22:30.386Z,8.63
2022-11-15T17:27:33.380Z,12.80
2022-11-15T17:32:38.573Z,22.90
2022-11-15T17:37:41.331Z,20.48
2022-11-15T17:42:44.715Z,25.02
2022-11-15T17:47:48.861Z,21.42
2022-11-15T17:52:51.796Z,24.30
2022-11-15T17:57:54.555Z,16.77
2022-11-15T18:02:59.301Z,24.13
2022-11-15T18:08:02.069Z,28.17
2022-11-15T18:13:05.260Z,19.95
2022-11-15T18:18:09.353Z,19.67
2022-11-15T18:23:12.393Z,16.10
2022-11-15T18:28:15.327Z,14.73
2022-11-15T18:33:19.722Z,20.05
2022-11-15T18:38:22.499Z,21.52
2022-11-15T18:43:25.269Z,16.13
2022-11-15T18:48:31.862Z,11.93
2022-11-15T18:53:35.942Z,12.70
2022-11-15T18:58:40.871Z,19.00
2022-11-15T19:03:46.460Z,13.20
2022-11-15T19:08:50.744Z,23.15
2022-11-15T19:13:54.546Z,20.60
2022-11-15T19:18:59.765Z,18.60
2022-11-15T19:24:03.121Z,18.92
2022-11-15T19:29:07.095Z,19.92
2022-11-15T19:34:13.064Z,16.52
2022-11-15T19:39:18.414Z,14.00
2022-11-15T19:44:22.696Z,18.38
2022-11-15T19:49:27.547Z,12.63
2022-11-15T19:54:30.336Z,15.98
2022-11-15T19:59:33.036Z,15.55
2022-11-15T20:04:37.149Z,14.77
2022-11-15T20:09:39.865Z,13.98
2022-11-15T20:14:42.700Z,12.80
2022-11-15T20:19:46.899Z,10.25
2022-11-15T20:24:49.841Z,11.35
2022-11-15T20:29:54.490Z,11.75
2022-11-15T20:34:58.570Z,10.95
2022-11-15T20:40:01.413Z,10.07
2022-11-15T20:45:04.408Z,8.05
2022-11-15T20:50:35.495Z,12.90
2022-11-15T20:55:32.399Z,11.55
2022-11-15T21:00:36.774Z,10.93
2022-11-15T21:05:42.000Z,11.55
2022-11-15T21:11:16.559Z,9.18
2022-11-15T21:16:19.260Z,8.75
2022-11-15T21:21:23.425Z,7.00
2022-11-15T21:26:26.162Z,9.27
2022-11-15T21:31:29.041Z,8.02
2022-11-15T21:36:33.163Z,6.90
2022-11-15T21:41:36.332Z,11.50
2022-11-15T21:46:39.195Z,9.60
2022-11-15T21:51:43.351Z,10.35
2022-11-15T21:56:46.359Z,7.55
2022-11-15T22:02:06.741Z,9.32
2022-11-15T22:07:10.853Z,9.93
2022-11-15T22:12:13.920Z,9.52
2022-11-15T22:17:16.873Z,7.00
2022-11-15T22:22:21.095Z,8.32
2022-11-15T22:27:24.099Z,7.35
2022-11-15T22:32:27.164Z,5.85
2022-11-15T22:37:31.401Z,7.82
2022-11-15T22:42:34.267Z,7.60
2022-11-15T22:47:37.208Z,9.45
2022-11-15T22:52:41.430Z,6.82
2022-11-15T22:57:44.397Z,9.48
2022-11-15T23:02:51.795Z,6.32
2022-11-15T23:07:57.573Z,8.98
2022-11-15T23:13:19.484Z,9.68
2022-11-15T23:18:22.344Z,8.18
2022-11-15T23:23:26.649Z,9.88
2022-11-15T23:28:29.624Z,10.15
2022-11-15T23:33:50.113Z,9.02
2022-11-15T23:38:54.603Z,10.75
2022-11-15T23:43:57.446Z,15.77
2022-11-15T23:49:00.691Z,12.32
2022-11-15T23:54:05.069Z,10.73
2022-11-15T23:59:08.466Z,9.35
